Time;durP1;ratioP1;P1;durP2;ratioP2;P2;SDS_P1;SDS_P2;PMS_P1;PMS_P2;Temp;Humidity;BMP_temperature;BMP_pressure;BME280_temperature;BME280_humidity;BME280_pressure;Samples;Min_cycle;Max_cycle;Signal;HPM_P1;HPM_P2
2021/04/30 00:02:07;;;;;;;32.53;28.97;;;7.80;99.90;;;;;;4969727;28;20318;-54
2021/04/30 00:04:36;;;;;;;34.27;30.53;;;7.80;99.90;;;;;;4969674;28;20242;-53
2021/04/30 00:07:04;;;;;;;32.57;29.03;;;7.80;99.90;;;;;;4969996;28;20316;-53
2021/04/30 00:09:33;;;;;;;34.10;30.40;;;7.80;99.90;;;;;;4979434;28;20237;-53
2021/04/30 00:12:01;;;;;;;32.17;28.87;;;7.80;99.90;;;;;;4988747;28;20241;-52
2021/04/30 00:14:29;;;;;;;35.20;30.00;;;7.80;99.90;;;;;;4982915;28;20239;-52
2021/04/30 00:16:56;;;;;;;33.53;29.90;;;7.70;99.90;;;;;;4992097;28;20245;-53
2021/04/30 00:19:24;;;;;;;34.00;30.47;;;7.80;99.90;;;;;;4988354;28;20498;-53
2021/04/30 00:21:52;;;;;;;33.90;30.40;;;7.80;99.90;;;;;;4999748;28;20300;-53
2021/04/30 00:24:19;;;;;;;35.67;31.10;;;7.80;99.90;;;;;;5008288;28;20654;-53
2021/04/30 00:26:47;;;;;;;35.27;31.47;;;7.70;99.90;;;;;;5008768;28;20558;-53
2021/04/30 00:29:15;;;;;;;36.03;31.73;;;7.80;99.90;;;;;;4999512;28;20262;-53
2021/04/30 00:31:42;;;;;;;37.20;31.40;;;7.70;99.90;;;;;;4984521;28;20298;-54
2021/04/30 00:34:10;;;;;;;36.37;32.37;;;7.70;99.90;;;;;;4988722;28;20230;-52
2021/04/30 00:36:37;;;;;;;36.40;32.57;;;7.70;99.90;;;;;;4988642;28;20243;-52
2021/04/30 00:39:06;;;;;;;37.13;32.37;;;7.70;99.90;;;;;;4988564;28;20893;-54
2021/04/30 00:41:33;;;;;;;37.37;32.73;;;7.70;99.90;;;;;;4987997;28;20233;-52
2021/04/30 00:44:04;;;;;;;35.83;31.77;;;7.70;99.90;;;;;;4988446;28;20234;-52
2021/04/30 00:46:32;;;;;;;36.23;32.30;;;7.70;99.90;;;;;;4988503;28;20769;-54
2021/04/30 00:49:00;;;;;;;36.83;32.83;;;7.70;99.90;;;;;;4982943;28;20238;-54
2021/04/30 00:51:27;;;;;;;36.17;32.37;;;7.70;99.90;;;;;;4968295;28;20246;-52
2021/04/30 00:53:55;;;;;;;36.80;32.93;;;7.70;99.90;;;;;;4969004;28;20246;-53
2021/04/30 00:56:23;;;;;;;36.53;32.57;;;7.70;99.90;;;;;;4969136;28;20240;-53
2021/04/30 00:58:50;;;;;;;37.60;32.47;;;7.70;99.90;;;;;;4973025;28;20245;-52
2021/04/30 01:01:19;;;;;;;37.27;32.77;;;7.70;99.90;;;;;;4987892;28;20241;-52
2021/04/30 01:03:48;;;;;;;35.50;31.87;;;7.80;99.90;;;;;;4988212;28;20667;-52
2021/04/30 01:06:15;;;;;;;37.03;32.97;;;7.80;99.90;;;;;;4988041;28;20239;-53
2021/04/30 01:08:43;;;;;;;36.27;31.80;;;7.80;99.90;;;;;;4988448;28;20240;-52
2021/04/30 01:11:10;;;;;;;35.73;31.83;;;7.80;99.90;;;;;;4984552;28;20300;-52
2021/04/30 01:13:37;;;;;;;35.17;31.33;;;7.80;99.90;;;;;;4986850;28;20237;-52
2021/04/30 01:16:05;;;;;;;36.60;32.73;;;7.80;99.90;;;;;;4986063;28;20250;-52
2021/04/30 01:18:42;;;;;;;37.53;32.57;;;7.80;99.90;;;;;;4999664;28;20237;-53
2021/04/30 01:21:10;;;;;;;35.53;31.73;;;7.80;99.90;;;;;;5004168;28;20620;-53
2021/04/30 01:23:49;;;;;;;35.77;31.87;;;7.70;99.90;;;;;;4995727;28;20238;-53
2021/04/30 01:26:18;;;;;;;37.10;32.97;;;7.70;99.90;;;;;;4980623;28;20246;-52
2021/04/30 01:28:47;;;;;;;37.50;33.37;;;7.70;99.90;;;;;;4968805;28;20246;-52
2021/04/30 01:31:17;;;;;;;37.87;33.67;;;7.70;99.90;;;;;;4968799;28;20320;-54
2021/04/30 01:33:44;;;;;;;38.20;33.13;;;7.70;99.90;;;;;;4972324;28;20661;-53
2021/04/30 01:36:12;;;;;;;36.87;32.87;;;7.70;99.90;;;;;;4978900;28;20687;-53
2021/04/30 01:38:39;;;;;;;34.90;31.17;;;7.70;99.90;;;;;;4992172;28;20227;-53
2021/04/30 01:41:08;;;;;;;36.23;32.23;;;7.70;99.90;;;;;;4990967;28;20597;-54
2021/04/30 01:43:35;;;;;;;36.30;32.40;;;7.70;99.90;;;;;;4991652;28;20243;-53
2021/04/30 01:46:05;;;;;;;39.47;33.10;;;7.70;99.90;;;;;;4982660;28;20234;-53
2021/04/30 01:48:35;;;;;;;36.27;31.83;;;7.70;99.90;;;;;;4973806;28;20898;-52
2021/04/30 01:51:04;;;;;;;35.70;31.90;;;7.60;99.90;;;;;;4971581;28;20321;-52
2021/04/30 01:53:34;;;;;;;37.63;32.60;;;7.60;99.90;;;;;;4971590;28;20648;-53
2021/04/30 01:56:03;;;;;;;35.13;31.53;;;7.70;99.90;;;;;;4979741;28;20327;-53
2021/04/30 01:58:31;;;;;;;33.20;29.80;;;7.60;99.90;;;;;;4981965;28;20731;-52
2021/04/30 02:01:00;;;;;;;36.03;32.13;;;7.60;99.90;;;;;;4971663;28;20323;-53
2021/04/30 02:03:27;;;;;;;38.67;31.10;;;7.50;99.90;;;;;;4971832;28;20718;-53
2021/04/30 02:05:55;;;;;;;33.77;30.30;;;7.40;99.90;;;;;;4975623;28;20248;-53
2021/04/30 02:08:22;;;;;;;34.57;30.87;;;7.40;99.90;;;;;;4989368;28;20234;-53
2021/04/30 02:10:53;;;;;;;33.90;30.20;;;7.40;99.90;;;;;;4998313;28;20262;-52
2021/04/30 02:13:23;;;;;;;36.77;30.90;;;7.40;99.90;;;;;;4991435;28;20256;-52
2021/04/30 02:15:54;;;;;;;34.33;29.80;;;7.40;99.90;;;;;;4997381;28;20787;-53
2021/04/30 02:18:22;;;;;;;33.13;29.60;;;7.40;99.90;;;;;;4999584;28;20614;-52
2021/04/30 02:20:50;;;;;;;33.20;29.57;;;7.30;99.90;;;;;;4990549;28;20230;-53
2021/04/30 02:23:17;;;;;;;31.60;28.27;;;7.30;99.90;;;;;;4991165;28;20234;-52
2021/04/30 02:25:45;;;;;;;31.53;28.23;;;7.20;99.90;;;;;;4990276;28;20277;-52
2021/04/30 02:28:15;;;;;;;31.50;28.03;;;7.10;99.90;;;;;;4991054;28;20276;-53
2021/04/30 02:30:43;;;;;;;31.03;27.67;;;7.10;99.90;;;;;;4990402;28;20246;-53
2021/04/30 02:33:12;;;;;;;31.33;28.03;;;7.00;99.90;;;;;;4990561;28;20245;-52
2021/04/30 02:35:42;;;;;;;31.53;28.13;;;6.90;99.90;;;;;;4989298;28;20227;-53
2021/04/30 02:38:14;;;;;;;30.10;27.00;;;6.90;99.90;;;;;;4971480;28;20560;-52
2021/04/30 02:40:43;;;;;;;32.17;27.83;;;6.90;99.90;;;;;;4973461;28;20238;-52
2021/04/30 02:43:13;;;;;;;30.40;27.23;;;6.90;99.90;;;;;;4975858;28;20353;-53
2021/04/30 02:45:42;;;;;;;32.70;29.23;;;6.80;99.90;;;;;;4989518;28;20335;-53
2021/04/30 02:48:13;;;;;;;31.90;28.50;;;6.80;99.90;;;;;;4990864;28;20761;-54
2021/04/30 02:50:42;;;;;;;31.77;27.73;;;6.70;99.90;;;;;;4990204;28;20772;-52
2021/04/30 02:53:10;;;;;;;31.60;27.77;;;6.70;99.90;;;;;;4986488;28;20322;-54
2021/04/30 02:55:37;;;;;;;31.17;27.90;;;6.60;99.90;;;;;;4970867;28;20230;-52
2021/04/30 02:58:05;;;;;;;31.50;28.10;;;6.60;99.90;;;;;;4970838;28;20252;-54
2021/04/30 03:00:33;;;;;;;32.30;28.57;;;6.60;99.90;;;;;;4970451;28;20238;-53
2021/04/30 03:03:02;;;;;;;32.47;29.03;;;6.50;99.90;;;;;;4972726;28;20678;-53
2021/04/30 03:05:31;;;;;;;32.17;28.77;;;6.50;99.90;;;;;;4990070;28;20233;-54
2021/04/30 03:07:58;;;;;;;31.27;27.83;;;6.50;99.90;;;;;;4990160;28;20262;-54
2021/04/30 03:10:26;;;;;;;32.77;29.23;;;6.50;99.90;;;;;;4988007;28;20238;-52
2021/04/30 03:12:53;;;;;;;29.07;25.90;;;6.50;99.90;;;;;;4995198;28;20539;-52
2021/04/30 03:15:20;;;;;;;33.60;29.97;;;6.50;99.90;;;;;;4996244;28;20241;-53
2021/04/30 03:17:48;;;;;;;32.87;29.30;;;6.50;99.90;;;;;;4986463;28;20697;-53
2021/04/30 03:20:18;;;;;;;32.37;28.87;;;6.40;99.90;;;;;;4970628;28;20242;-53
2021/04/30 03:22:47;;;;;;;33.13;29.53;;;6.40;99.90;;;;;;4969925;28;20234;-53
2021/04/30 03:25:16;;;;;;;31.63;28.23;;;6.30;99.90;;;;;;4969854;28;20325;-54
2021/04/30 03:27:43;;;;;;;33.40;29.23;;;6.40;99.90;;;;;;4970715;28;20321;-56
2021/04/30 03:30:13;;;;;;;30.23;26.97;;;6.50;99.90;;;;;;4970333;28;20726;-55
2021/04/30 03:32:41;;;;;;;31.80;28.50;;;6.60;99.90;;;;;;4970193;28;20254;-52
2021/04/30 03:35:15;;;;;;;32.40;28.90;;;6.70;99.90;;;;;;4970147;28;20242;-53
2021/04/30 03:37:46;;;;;;;28.73;25.63;;;6.80;99.90;;;;;;4986206;28;20252;-53
2021/04/30 03:40:15;;;;;;;27.87;24.93;;;6.90;99.90;;;;;;4989486;28;20241;-53
2021/04/30 03:42:43;;;;;;;31.37;27.97;;;7.00;99.90;;;;;;4989352;28;20261;-54
2021/04/30 03:45:12;;;;;;;30.53;27.27;;;6.80;99.90;;;;;;4989362;28;20317;-53
2021/04/30 03:47:40;;;;;;;31.53;26.57;;;6.70;99.90;;;;;;4973787;28;20249;-54
2021/04/30 03:50:08;;;;;;;28.77;25.77;;;6.80;99.90;;;;;;4969497;28;20606;-53
2021/04/30 03:52:35;;;;;;;26.67;23.37;;;6.70;99.90;;;;;;4969786;28;20820;-53
2021/04/30 03:55:05;;;;;;;29.50;26.30;;;6.70;99.90;;;;;;4969436;28;20601;-53
2021/04/30 03:57:32;;;;;;;28.20;25.23;;;6.60;99.90;;;;;;4983947;28;20238;-53
2021/04/30 04:00:00;;;;;;;31.70;28.23;;;6.50;99.90;;;;;;4989088;28;20739;-54
2021/04/30 04:02:27;;;;;;;31.33;26.40;;;6.50;99.90;;;;;;4988980;28;20648;-53
2021/04/30 04:04:54;;;;;;;29.60;26.00;;;6.70;99.90;;;;;;4980591;28;20242;-56
2021/04/30 04:07:21;;;;;;;28.80;25.80;;;6.40;99.90;;;;;;4996703;28;20237;-52
2021/04/30 04:09:49;;;;;;;30.00;26.57;;;6.40;99.90;;;;;;4988666;28;20245;-53
2021/04/30 04:12:17;;;;;;;31.43;28.03;;;6.60;99.90;;;;;;4999155;28;20274;-53
2021/04/30 04:14:44;;;;;;;30.83;27.30;;;6.60;99.90;;;;;;5008337;28;20320;-53
2021/04/30 04:17:14;;;;;;;31.37;27.97;;;6.70;99.90;;;;;;5008595;28;20237;-53
2021/04/30 04:19:53;;;;;;;33.03;27.30;;;6.60;99.90;;;;;;5008283;28;20238;-53
2021/04/30 04:22:20;;;;;;;32.50;27.63;;;6.80;99.90;;;;;;5003604;28;20325;-54
2021/04/30 04:24:48;;;;;;;32.07;27.70;;;6.70;99.90;;;;;;4988442;28;20709;-53
2021/04/30 04:27:15;;;;;;;32.47;28.90;;;6.60;99.90;;;;;;4989005;28;20329;-53
2021/04/30 04:29:44;;;;;;;31.57;28.17;;;6.50;99.90;;;;;;4988509;28;20635;-55
2021/04/30 04:32:11;;;;;;;33.73;27.80;;;6.60;99.90;;;;;;4986158;28;20238;-53
2021/04/30 04:34:39;;;;;;;34.27;28.77;;;6.70;99.90;;;;;;4968860;28;20717;-53
2021/04/30 04:37:07;;;;;;;34.73;30.90;;;6.70;99.90;;;;;;4969651;28;20721;-54
2021/04/30 04:39:34;;;;;;;31.47;28.03;;;6.60;99.90;;;;;;4969061;28;20293;-53
2021/04/30 04:42:04;;;;;;;33.90;30.23;;;6.60;99.90;;;;;;4969622;28;20656;-55
2021/04/30 04:44:33;;;;;;;33.17;29.23;;;6.70;99.90;;;;;;4988101;28;20237;-54
2021/04/30 04:47:02;;;;;;;33.30;29.70;;;6.80;99.90;;;;;;4985202;28;20234;-53
2021/04/30 04:49:30;;;;;;;30.23;26.93;;;6.70;99.90;;;;;;4979670;28;20231;-53
2021/04/30 04:51:58;;;;;;;37.37;31.83;;;6.80;99.90;;;;;;4979048;28;20233;-55
2021/04/30 04:54:27;;;;;;;34.27;29.77;;;7.00;99.90;;;;;;4978906;28;20321;-54
2021/04/30 04:56:55;;;;;;;37.20;31.80;;;6.90;99.90;;;;;;4977467;28;20258;-55
2021/04/30 04:59:23;;;;;;;37.03;31.83;;;7.10;99.90;;;;;;4978261;28;20283;-53
2021/04/30 05:01:50;;;;;;;39.33;32.77;;;7.10;99.90;;;;;;4992832;28;20245;-53
2021/04/30 05:04:18;;;;;;;35.00;30.67;;;7.20;99.90;;;;;;4986723;28;20233;-53
2021/04/30 05:06:46;;;;;;;35.70;31.77;;;7.20;99.90;;;;;;4997677;28;20236;-54
2021/04/30 05:09:13;;;;;;;38.77;34.60;;;7.40;99.90;;;;;;5002241;28;20241;-53
2021/04/30 05:11:40;;;;;;;37.60;32.43;;;7.50;99.90;;;;;;5011406;28;20717;-53
2021/04/30 05:14:07;;;;;;;37.97;33.53;;;7.50;99.90;;;;;;4993284;28;20321;-54
2021/04/30 05:16:35;;;;;;;46.67;37.13;;;7.40;99.90;;;;;;4992496;28;20238;-57
2021/04/30 05:19:03;;;;;;;42.10;36.37;;;7.60;99.90;;;;;;4992222;28;20238;-53
2021/04/30 05:21:32;;;;;;;41.67;35.37;;;7.70;99.90;;;;;;4988795;28;20656;-53
2021/04/30 05:24:00;;;;;;;50.83;38.73;;;7.60;99.90;;;;;;4987059;28;20237;-53
2021/04/30 05:26:29;;;;;;;49.43;37.83;;;7.50;99.90;;;;;;4987601;28;20249;-55
2021/04/30 05:28:58;;;;;;;48.27;37.73;;;7.80;99.90;;;;;;4992097;28;20569;-54
2021/04/30 05:31:25;;;;;;;44.53;38.27;;;7.90;99.90;;;;;;4990314;28;20665;-56
2021/04/30 05:33:53;;;;;;;37.80;33.70;;;7.60;99.90;;;;;;4991077;28;20239;-57
2021/04/30 05:36:22;;;;;;;35.10;31.40;;;7.50;99.90;;;;;;4992202;28;20597;-54
2021/04/30 05:38:51;;;;;;;34.23;30.67;;;7.50;99.90;;;;;;4983544;28;20234;-54
2021/04/30 05:41:18;;;;;;;34.97;30.67;;;7.50;99.90;;;;;;4979851;28;20883;-53
2021/04/30 05:43:46;;;;;;;35.87;32.17;;;7.70;99.90;;;;;;4982438;28;20238;-52
2021/04/30 05:46:13;;;;;;;32.77;29.43;;;7.80;99.90;;;;;;4979757;28;20242;-53
2021/04/30 05:48:41;;;;;;;32.60;29.30;;;7.90;99.90;;;;;;4983123;28;20645;-55
2021/04/30 05:51:08;;;;;;;33.47;29.87;;;8.00;99.90;;;;;;4990876;28;20244;-53
2021/04/30 05:53:35;;;;;;;35.40;31.80;;;8.10;99.90;;;;;;4990931;28;20344;-55
2021/04/30 05:56:13;;;;;;;34.73;31.17;;;8.10;99.90;;;;;;4991089;28;20262;-53
2021/04/30 05:58:40;;;;;;;33.90;30.50;;;8.10;99.90;;;;;;4988223;28;20592;-54
2021/04/30 06:01:07;;;;;;;35.80;31.07;;;8.10;99.90;;;;;;4982016;28;20736;-57
2021/04/30 06:03:34;;;;;;;33.63;30.23;;;8.20;99.90;;;;;;4979863;28;20263;-54
2021/04/30 06:06:02;;;;;;;33.87;30.37;;;8.40;99.90;;;;;;4998807;28;20241;-52
2021/04/30 06:08:29;;;;;;;33.33;29.93;;;8.50;99.90;;;;;;4981205;28;20235;-53
2021/04/30 06:10:56;;;;;;;32.43;29.07;;;8.60;99.90;;;;;;4969174;28;20309;-53
2021/04/30 06:13:24;;;;;;;32.27;29.07;;;8.80;99.90;;;;;;4969296;28;20707;-54
2021/04/30 06:15:52;;;;;;;32.03;28.63;;;8.90;99.90;;;;;;4969843;28;20275;-53
2021/04/30 06:18:19;;;;;;;30.97;27.87;;;9.00;99.90;;;;;;4985187;28;20359;-53
2021/04/30 06:20:47;;;;;;;28.80;25.93;;;9.10;99.90;;;;;;4987701;28;20320;-52
2021/04/30 06:23:14;;;;;;;29.37;26.57;;;9.30;99.90;;;;;;4982890;28;20235;-55
2021/04/30 06:25:42;;;;;;;27.67;24.93;;;9.40;99.90;;;;;;4979612;28;20639;-53
2021/04/30 06:28:09;;;;;;;28.57;24.83;;;9.60;99.90;;;;;;4988816;28;20245;-54
2021/04/30 06:30:37;;;;;;;25.67;23.27;;;9.90;99.90;;;;;;4987310;28;20246;-54
2021/04/30 06:33:08;;;;;;;26.10;23.57;;;10.00;99.90;;;;;;4989874;28;20247;-53
2021/04/30 06:35:36;;;;;;;24.77;22.47;;;10.20;99.90;;;;;;4981705;28;20745;-54
2021/04/30 06:38:04;;;;;;;25.17;22.57;;;10.40;99.90;;;;;;4984056;28;20576;-53
2021/04/30 06:40:32;;;;;;;23.30;20.63;;;10.70;99.90;;;;;;4985972;28;20240;-54
2021/04/30 06:43:00;;;;;;;22.57;20.37;;;11.00;99.90;;;;;;4993532;28;20236;-53
2021/04/30 06:45:28;;;;;;;23.50;21.23;;;11.20;99.90;;;;;;4979799;28;20234;-53
2021/04/30 06:47:56;;;;;;;22.27;20.17;;;11.30;99.90;;;;;;4983421;28;20730;-53
2021/04/30 06:50:23;;;;;;;21.93;19.93;;;11.50;99.90;;;;;;4989249;28;20243;-52
2021/04/30 06:52:55;;;;;;;21.67;19.73;;;11.70;99.90;;;;;;4980083;28;20565;-54
2021/04/30 06:55:22;;;;;;;21.40;19.40;;;11.60;99.90;;;;;;4964402;28;20256;-53
2021/04/30 06:57:49;;;;;;;19.33;17.53;;;11.80;99.90;;;;;;4978732;28;20241;-53
2021/04/30 07:00:17;;;;;;;20.20;18.20;;;11.90;99.90;;;;;;4967944;28;701426;-54
2021/04/30 07:02:45;;;;;;;19.77;17.83;;;11.70;99.90;;;;;;4989436;28;20241;-57
2021/04/30 07:05:14;;;;;;;19.53;17.73;;;11.70;99.90;;;;;;4975514;28;20259;-56
2021/04/30 07:07:42;;;;;;;19.67;17.87;;;11.70;99.90;;;;;;4976807;28;20740;-52
2021/04/30 07:10:11;;;;;;;18.53;16.77;;;11.80;99.90;;;;;;4973644;28;20327;-54
2021/04/30 07:12:40;;;;;;;18.00;16.33;;;11.90;99.90;;;;;;4983844;28;20233;-52
2021/04/30 07:15:09;;;;;;;18.23;16.33;;;12.10;99.90;;;;;;4969297;28;20254;-53
2021/04/30 07:17:36;;;;;;;18.13;16.33;;;12.40;99.90;;;;;;4973588;28;20403;-53
2021/04/30 07:20:05;;;;;;;18.27;16.43;;;12.70;99.90;;;;;;4972195;28;20253;-53
2021/04/30 07:22:33;;;;;;;16.83;15.33;;;12.80;99.90;;;;;;4973387;28;20708;-53
2021/04/30 07:25:01;;;;;;;17.23;15.67;;;12.40;99.90;;;;;;4971126;28;20291;-54
2021/04/30 07:27:29;;;;;;;17.37;15.60;;;12.10;99.90;;;;;;4972825;28;20273;-53
2021/04/30 07:29:56;;;;;;;16.83;15.33;;;12.00;99.90;;;;;;4972860;28;20727;-52
2021/04/30 07:32:24;;;;;;;16.07;14.57;;;12.00;99.90;;;;;;4975083;28;20644;-53
2021/04/30 07:34:52;;;;;;;15.17;13.87;;;12.00;99.90;;;;;;4972110;28;20236;-54
2021/04/30 07:37:19;;;;;;;15.93;14.43;;;12.00;99.90;;;;;;4974204;28;20724;-53
2021/04/30 07:39:47;;;;;;;13.10;12.00;;;11.90;99.90;;;;;;4981679;28;20242;-53
2021/04/30 07:42:15;;;;;;;13.93;12.60;;;11.90;99.90;;;;;;4981511;28;20252;-52
2021/04/30 07:44:42;;;;;;;14.50;13.20;;;12.00;99.90;;;;;;4979342;28;20522;-54
2021/04/30 07:47:10;;;;;;;13.27;12.00;;;12.00;99.90;;;;;;4977006;28;20803;-53
2021/04/30 07:49:38;;;;;;;12.47;11.40;;;12.00;99.90;;;;;;4976935;28;20628;-54
2021/04/30 07:52:06;;;;;;;12.90;11.73;;;12.20;99.90;;;;;;4974781;28;20272;-52
2021/04/30 07:54:35;;;;;;;11.77;10.67;;;12.40;99.90;;;;;;4978935;28;20316;-55
2021/04/30 07:57:05;;;;;;;12.93;11.73;;;12.30;99.90;;;;;;4983100;28;20268;-54
2021/04/30 07:59:32;;;;;;;13.00;11.83;;;12.20;99.90;;;;;;4980988;28;20264;-54
2021/04/30 08:02:00;;;;;;;12.67;11.47;;;12.00;99.90;;;;;;4970590;28;20361;-53
2021/04/30 08:04:28;;;;;;;13.90;12.60;;;12.00;99.90;;;;;;4969041;28;20610;-52
2021/04/30 08:06:55;;;;;;;12.97;11.77;;;11.70;99.90;;;;;;4970993;28;20366;-54
2021/04/30 08:09:23;;;;;;;13.47;12.30;;;11.70;99.90;;;;;;4973052;28;20774;-54
2021/04/30 08:11:50;;;;;;;13.33;12.13;;;11.70;99.90;;;;;;4968154;28;20247;-55
2021/04/30 08:14:19;;;;;;;13.13;11.87;;;11.80;99.90;;;;;;4975423;28;20299;-53
2021/04/30 08:16:46;;;;;;;13.83;12.63;;;11.90;99.90;;;;;;4978269;28;20233;-53
2021/04/30 08:19:13;;;;;;;13.27;12.10;;;11.90;99.90;;;;;;4982564;28;20367;-52
2021/04/30 08:21:40;;;;;;;12.93;11.73;;;12.10;99.90;;;;;;4979615;28;20316;-53
2021/04/30 08:24:09;;;;;;;13.03;11.80;;;12.50;99.90;;;;;;4977443;28;20252;-52
2021/04/30 08:26:36;;;;;;;13.00;11.73;;;12.60;99.90;;;;;;4983029;28;20241;-53
2021/04/30 08:29:04;;;;;;;13.10;11.90;;;12.70;99.90;;;;;;4980334;28;20294;-55
2021/04/30 08:31:32;;;;;;;12.50;11.27;;;12.80;99.90;;;;;;4976280;28;20223;-52
2021/04/30 08:34:00;;;;;;;12.20;11.10;;;12.70;99.90;;;;;;4983620;28;20700;-53
2021/04/30 08:36:27;;;;;;;12.40;11.27;;;12.80;99.90;;;;;;4985422;28;20246;-53
2021/04/30 08:38:54;;;;;;;12.37;11.10;;;13.00;99.90;;;;;;4979217;28;20755;-53
2021/04/30 08:41:25;;;;;;;12.50;11.40;;;13.30;99.90;;;;;;4971511;28;20233;-50
2021/04/30 08:43:53;;;;;;;11.67;10.60;;;13.60;99.90;;;;;;4980767;28;20319;-50
2021/04/30 08:46:20;;;;;;;12.10;11.00;;;13.70;99.90;;;;;;4983364;28;20327;-53
2021/04/30 08:48:49;;;;;;;13.93;11.03;;;14.00;99.90;;;;;;4986816;28;20711;-50
2021/04/30 08:51:16;;;;;;;14.20;10.20;;;14.30;99.90;;;;;;4971417;28;20369;-52
2021/04/30 08:53:43;;;;;;;11.33;10.33;;;14.30;99.90;;;;;;4968097;28;21317;-52
2021/04/30 08:56:11;;;;;;;10.77;9.87;;;14.10;99.90;;;;;;4971595;28;20271;-52
2021/04/30 08:58:38;;;;;;;11.47;10.37;;;14.00;99.90;;;;;;4966956;28;20834;-50
2021/04/30 09:01:06;;;;;;;12.73;11.43;;;13.90;99.90;;;;;;4976508;28;20332;-53
2021/04/30 09:03:35;;;;;;;12.37;11.20;;;13.70;99.90;;;;;;4981003;28;20322;-50
2021/04/30 09:06:06;;;;;;;11.47;10.37;;;13.50;99.90;;;;;;4996112;28;20245;-51
2021/04/30 09:08:46;;;;;;;10.80;9.80;;;13.60;99.90;;;;;;4969659;28;20227;-50
2021/04/30 09:11:35;;;;;;;11.07;9.97;;;13.70;99.90;;;;;;4970989;28;20466;-52
2021/04/30 09:14:26;;;;;;;11.17;10.17;;;14.10;99.90;;;;;;4972501;28;20730;-51
2021/04/30 09:17:06;;;;;;;10.70;9.73;;;14.00;99.90;;;;;;4970024;28;20695;-50
2021/04/30 09:19:46;;;;;;;10.60;9.70;;;14.00;99.90;;;;;;4974364;28;20680;-51
2021/04/30 09:22:17;;;;;;;10.07;9.17;;;14.00;99.90;;;;;;4971784;28;20312;-50
2021/04/30 09:24:56;;;;;;;10.50;9.60;;;14.00;99.90;;;;;;4970016;28;20268;-52
2021/04/30 09:27:33;;;;;;;10.27;9.37;;;14.00;99.90;;;;;;4972493;28;20237;-55
2021/04/30 09:30:24;;;;;;;9.57;8.67;;;14.00;99.90;;;;;;4967566;28;20242;-51
2021/04/30 09:33:10;;;;;;;10.40;9.50;;;14.10;99.90;;;;;;4970391;28;20246;-54
2021/04/30 09:35:40;;;;;;;10.27;9.37;;;14.00;99.90;;;;;;4967471;28;20254;-50
2021/04/30 09:38:21;;;;;;;9.33;8.53;;;14.00;99.90;;;;;;4976497;28;20282;-50
2021/04/30 09:40:50;;;;;;;9.07;8.27;;;14.10;99.90;;;;;;4980902;28;20288;-52
2021/04/30 09:43:20;;;;;;;9.97;9.00;;;14.00;99.90;;;;;;4987800;28;20237;-51
2021/04/30 09:45:48;;;;;;;9.63;8.63;;;13.80;99.90;;;;;;4987780;28;20625;-51
2021/04/30 09:48:16;;;;;;;9.73;8.83;;;13.80;99.90;;;;;;4971812;28;20251;-50
2021/04/30 09:50:45;;;;;;;46.97;13.40;;;13.70;99.90;;;;;;4984803;28;20586;-50
2021/04/30 09:53:17;;;;;;;15.63;9.37;;;13.40;99.90;;;;;;4985184;28;20234;-52
2021/04/30 09:55:47;;;;;;;10.10;9.10;;;13.40;99.90;;;;;;5000413;28;20642;-51
2021/04/30 09:58:18;;;;;;;9.70;8.80;;;13.40;99.90;;;;;;5002856;28;20243;-50
2021/04/30 10:00:48;;;;;;;11.07;8.77;;;13.70;99.90;;;;;;4997864;28;20792;-53
2021/04/30 10:03:23;;;;;;;9.67;8.67;;;13.90;99.90;;;;;;4978957;28;20234;-51
2021/04/30 10:06:06;;;;;;;9.43;8.63;;;14.10;99.90;;;;;;4971757;28;20246;-53
2021/04/30 10:08:35;;;;;;;9.47;8.63;;;14.30;99.90;;;;;;4990076;28;20299;-50
2021/04/30 10:11:04;;;;;;;8.77;8.07;;;14.30;99.90;;;;;;4990709;28;20238;-50
2021/04/30 10:13:39;;;;;;;9.00;8.20;;;14.20;99.90;;;;;;4990358;28;20355;-50
2021/04/30 10:16:07;;;;;;;9.07;8.27;;;14.20;99.90;;;;;;4989817;28;20745;-52
2021/04/30 10:18:34;;;;;;;20.13;10.50;;;14.10;99.90;;;;;;4991125;28;20268;-51
2021/04/30 10:21:03;;;;;;;10.67;9.67;;;13.90;99.90;;;;;;4990819;28;20226;-51
2021/04/30 10:23:32;;;;;;;10.63;9.63;;;13.80;99.90;;;;;;4990841;28;20250;-50
2021/04/30 10:26:03;;;;;;;10.47;9.47;;;13.60;99.90;;;;;;4979694;28;20242;-50
2021/04/30 10:28:32;;;;;;;10.70;9.60;;;13.70;99.90;;;;;;4971690;28;20804;-49
2021/04/30 10:31:07;;;;;;;10.83;9.83;;;13.70;99.90;;;;;;4971135;28;20239;-50
2021/04/30 10:33:39;;;;;;;10.53;9.63;;;14.00;99.90;;;;;;4972056;28;20226;-51
2021/04/30 10:36:14;;;;;;;10.57;9.57;;;14.30;99.90;;;;;;4973992;28;20245;-49
2021/04/30 10:38:46;;;;;;;9.97;9.13;;;14.70;99.90;;;;;;4975266;28;20319;-51
2021/04/30 10:41:15;;;;;;;10.20;9.20;;;15.30;99.90;;;;;;4973720;28;20249;-49
2021/04/30 10:43:42;;;;;;;11.00;9.90;;;15.10;99.90;;;;;;4970499;28;20242;-50
2021/04/30 10:46:22;;;;;;;10.03;9.07;;;15.20;99.90;;;;;;4969129;28;20561;-50
2021/04/30 10:49:17;;;;;;;10.20;9.20;;;15.60;99.90;;;;;;4976918;28;20713;-49
2021/04/30 10:52:16;;;;;;;10.53;9.47;;;16.00;99.90;;;;;;4974918;28;20833;-51
2021/04/30 10:54:45;;;;;;;9.60;8.80;;;16.30;99.90;;;;;;4974595;28;20238;-50
2021/04/30 10:57:19;;;;;;;9.23;8.43;;;16.80;99.90;;;;;;4972149;28;20249;-55
2021/04/30 10:59:50;;;;;;;10.63;9.73;;;16.80;99.90;;;;;;4972948;28;20246;-50
2021/04/30 11:02:25;;;;;;;9.80;9.00;;;16.80;99.90;;;;;;4968165;28;20237;-51
2021/04/30 11:05:16;;;;;;;10.07;9.23;;;16.40;99.90;;;;;;4971055;28;20238;-52
2021/04/30 11:07:47;;;;;;;11.03;10.03;;;15.70;99.90;;;;;;4971026;28;20234;-50
2021/04/30 11:10:39;;;;;;;11.70;10.70;;;15.10;99.90;;;;;;4969800;28;20249;-50
2021/04/30 11:13:15;;;;;;;10.87;9.90;;;14.80;99.90;;;;;;4969629;28;20772;-50
2021/04/30 11:16:01;;;;;;;10.97;9.97;;;14.80;99.90;;;;;;4971551;28;21378;-49
2021/04/30 11:18:31;;;;;;;10.10;9.20;;;15.00;99.90;;;;;;4966775;28;20238;-50
2021/04/30 11:21:04;;;;;;;9.23;8.43;;;15.70;99.90;;;;;;4971174;28;20242;-50
2021/04/30 11:23:40;;;;;;;10.37;9.23;;;16.00;99.90;;;;;;4984198;28;20649;-51
2021/04/30 11:26:13;;;;;;;10.57;9.70;;;16.00;99.90;;;;;;4969491;28;20796;-50
2021/04/30 11:29:10;;;;;;;15.07;10.53;;;15.80;99.90;;;;;;4977800;28;20288;-49
2021/04/30 11:31:41;;;;;;;9.53;8.73;;;15.40;99.90;;;;;;4978020;28;20246;-49
2021/04/30 11:34:22;;;;;;;9.83;8.93;;;14.90;99.90;;;;;;4978858;28;20241;-50
2021/04/30 11:36:56;;;;;;;10.17;9.13;;;14.90;99.90;;;;;;4969920;28;20603;-49
2021/04/30 11:39:32;;;;;;;10.17;9.27;;;14.90;99.90;;;;;;4971689;28;20275;-55
2021/04/30 11:42:03;;;;;;;10.07;9.17;;;14.90;99.90;;;;;;4983055;28;20233;-49
2021/04/30 11:44:32;;;;;;;10.60;9.57;;;15.10;99.90;;;;;;4984879;28;20603;-50
2021/04/30 11:47:04;;;;;;;9.73;8.93;;;14.90;99.90;;;;;;4975301;28;20602;-50
2021/04/30 11:49:36;;;;;;;9.30;8.50;;;15.00;99.90;;;;;;4978912;28;20784;-51
2021/04/30 11:52:05;;;;;;;8.87;8.13;;;15.00;99.90;;;;;;4985160;28;20299;-49
2021/04/30 11:54:35;;;;;;;8.90;8.20;;;15.00;99.90;;;;;;4998740;28;20325;-50
2021/04/30 11:57:07;;;;;;;8.90;8.10;;;14.90;99.90;;;;;;4994991;28;20249;-50
2021/04/30 11:59:39;;;;;;;10.33;9.43;;;14.90;99.90;;;;;;4985379;28;20236;-51
2021/04/30 12:02:28;;;;;;;9.43;8.73;;;14.80;99.90;;;;;;4967555;28;20694;-50
2021/04/30 12:04:57;;;;;;;10.83;9.93;;;14.70;99.90;;;;;;4968085;28;20326;-54
2021/04/30 12:07:35;;;;;;;10.50;9.50;;;14.50;99.90;;;;;;4977506;28;20308;-50
2021/04/30 12:10:18;;;;;;;10.67;9.77;;;14.60;99.90;;;;;;4972625;28;20622;-49
2021/04/30 12:12:46;;;;;;;10.23;9.33;;;14.40;99.90;;;;;;4969209;28;20242;-50
2021/04/30 12:15:18;;;;;;;10.33;9.43;;;14.50;99.90;;;;;;4968964;28;20242;-50
2021/04/30 12:17:45;;;;;;;11.43;10.47;;;14.70;99.90;;;;;;4980453;28;20237;-50
2021/04/30 12:20:16;;;;;;;10.23;9.43;;;14.70;99.90;;;;;;4988983;28;20709;-51
2021/04/30 12:22:51;;;;;;;10.97;9.97;;;14.70;99.90;;;;;;4988449;28;20237;-50
2021/04/30 12:25:41;;;;;;;10.87;9.87;;;14.60;99.90;;;;;;4988725;28;20233;-50
2021/04/30 12:28:21;;;;;;;10.10;9.23;;;14.60;99.90;;;;;;4974932;28;20245;-49
2021/04/30 12:30:53;;;;;;;9.97;9.13;;;14.50;99.90;;;;;;4968991;28;20293;-49
2021/04/30 12:33:25;;;;;;;9.50;8.70;;;14.40;99.90;;;;;;4969170;28;20241;-50
2021/04/30 12:35:54;;;;;;;9.60;8.70;;;14.20;99.90;;;;;;4977455;28;20234;-49
2021/04/30 12:38:22;;;;;;;10.03;9.10;;;14.20;99.90;;;;;;4975686;28;20262;-51
2021/04/30 12:40:49;;;;;;;10.17;9.23;;;14.20;99.90;;;;;;4967206;28;20321;-49
2021/04/30 12:43:25;;;;;;;9.60;8.80;;;14.30;99.90;;;;;;4970097;28;20261;-49
2021/04/30 12:45:53;;;;;;;9.13;8.33;;;14.30;99.90;;;;;;4970288;28;20435;-50
2021/04/30 12:48:27;;;;;;;8.83;8.03;;;14.30;99.90;;;;;;4971446;28;20261;-50
2021/04/30 12:50:56;;;;;;;9.83;9.03;;;14.40;99.90;;;;;;4974208;28;20238;-49